createdAt,value
2022-08-03T00:00:29.124Z,24.80
2022-08-03T00:02:56.021Z,24.80
2022-08-03T00:05:22.864Z,24.70
2022-08-03T00:07:49.721Z,24.70
2022-08-03T00:10:16.930Z,24.70
2022-08-03T00:12:43.813Z,24.70
2022-08-03T00:15:16.529Z,24.70
2022-08-03T00:17:52.076Z,24.60
2022-08-03T00:20:20.112Z,24.60
2022-08-03T00:22:46.906Z,24.60
2022-08-03T00:25:13.720Z,24.60
2022-08-03T00:27:40.421Z,24.60
2022-08-03T00:30:07.782Z,24.60
2022-08-03T00:32:34.527Z,24.60
2022-08-03T00:35:01.250Z,24.60
2022-08-03T00:37:41.697Z,24.60
2022-08-03T00:40:11.558Z,24.60
2022-08-03T00:43:01.812Z,24.50
2022-08-03T00:45:32.691Z,24.50
2022-08-03T00:47:59.863Z,24.50
2022-08-03T00:50:28.963Z,24.50
2022-08-03T00:52:58.303Z,24.50
2022-08-03T00:55:26.001Z,24.40
2022-08-03T00:57:53.350Z,24.40
2022-08-03T01:00:23.805Z,24.30
2022-08-03T01:02:51.661Z,24.30
2022-08-03T01:05:19.491Z,24.30
2022-08-03T01:07:55.438Z,24.20
2022-08-03T01:10:41.396Z,24.20
2022-08-03T01:14:01.444Z,24.20
2022-08-03T01:16:53.685Z,24.10
2022-08-03T01:19:45.542Z,24.00
2022-08-03T01:22:50.032Z,24.00
2022-08-03T01:25:38.896Z,23.90
2022-08-03T01:28:08.677Z,23.90
2022-08-03T01:30:37.716Z,23.90
2022-08-03T01:33:07.465Z,23.90
2022-08-03T01:35:42.273Z,23.80
2022-08-03T01:38:15.691Z,23.70
2022-08-03T01:40:44.886Z,23.70
2022-08-03T01:43:54.940Z,23.70
2022-08-03T01:46:04.708Z,23.60
2022-08-03T01:48:32.283Z,23.60
2022-08-03T01:51:00.472Z,23.60
2022-08-03T01:53:28.712Z,23.60
2022-08-03T01:55:57.362Z,23.60
2022-08-03T01:58:25.851Z,23.60
2022-08-03T02:00:55.753Z,23.60
2022-08-03T02:03:24.350Z,23.60
2022-08-03T02:06:06.121Z,23.60
2022-08-03T02:08:41.901Z,23.50
2022-08-03T02:11:08.925Z,23.40
2022-08-03T02:13:35.770Z,23.40
2022-08-03T02:16:04.150Z,23.40
2022-08-03T02:18:32.668Z,23.40
2022-08-03T02:21:02.019Z,23.40
2022-08-03T02:23:38.764Z,23.40
2022-08-03T02:26:09.520Z,23.30
2022-08-03T02:28:41.474Z,23.40
2022-08-03T02:31:16.625Z,23.40
2022-08-03T02:33:53.565Z,23.30
2022-08-03T02:36:25.319Z,23.30
2022-08-03T02:38:55.808Z,23.30
2022-08-03T02:41:32.443Z,23.30
2022-08-03T02:44:05.922Z,23.30
2022-08-03T02:46:38.478Z,23.20
2022-08-03T02:49:40.952Z,23.20
2022-08-03T02:51:56.532Z,23.20
2022-08-03T02:54:24.845Z,23.20
2022-08-03T02:56:53.979Z,23.20
2022-08-03T02:59:21.960Z,23.20
2022-08-03T03:01:49.544Z,23.10
2022-08-03T03:04:17.238Z,23.10
2022-08-03T03:06:49.000Z,23.20
2022-08-03T03:09:16.669Z,23.20
2022-08-03T03:11:44.772Z,23.20
2022-08-03T03:14:13.429Z,23.30
2022-08-03T03:16:41.863Z,23.30
2022-08-03T03:19:11.390Z,23.20
2022-08-03T03:21:38.480Z,23.20
2022-08-03T03:24:07.204Z,23.20
2022-08-03T03:26:38.311Z,23.10
2022-08-03T03:29:07.846Z,23.10
2022-08-03T03:31:35.985Z,23.10
2022-08-03T03:34:02.912Z,23.10
2022-08-03T03:36:29.707Z,23.00
2022-08-03T03:38:57.463Z,23.00
2022-08-03T03:41:24.751Z,23.00
2022-08-03T03:43:51.536Z,23.00
2022-08-03T03:46:18.568Z,23.10
2022-08-03T03:48:45.392Z,23.00
2022-08-03T03:51:12.770Z,23.10
2022-08-03T03:53:39.568Z,23.10
2022-08-03T03:56:06.462Z,23.10
2022-08-03T03:58:33.441Z,23.20
2022-08-03T04:01:00.814Z,23.10
2022-08-03T04:03:28.093Z,23.20
2022-08-03T04:06:13.551Z,23.10
2022-08-03T04:09:19.576Z,23.10
2022-08-03T04:11:51.331Z,23.10
2022-08-03T04:14:28.927Z,23.10
2022-08-03T04:16:59.327Z,23.10
2022-08-03T04:19:43.562Z,23.00
2022-08-03T04:22:13.778Z,23.10
2022-08-03T04:24:49.677Z,23.00
2022-08-03T04:27:21.022Z,23.00
2022-08-03T04:29:51.538Z,23.00
2022-08-03T04:32:20.232Z,23.00
2022-08-03T04:34:47.685Z,23.00
2022-08-03T04:37:29.833Z,23.00
2022-08-03T04:39:58.591Z,23.00
2022-08-03T04:42:26.781Z,23.00
2022-08-03T04:45:00.463Z,23.00
2022-08-03T04:47:28.283Z,23.00
2022-08-03T04:49:56.329Z,23.00
2022-08-03T04:52:23.204Z,23.00
2022-08-03T04:54:50.573Z,23.00
2022-08-03T04:57:23.201Z,23.00
2022-08-03T05:00:02.534Z,23.00
2022-08-03T05:02:31.059Z,23.10
2022-08-03T05:04:58.351Z,23.10
2022-08-03T05:07:25.426Z,23.10
2022-08-03T05:09:57.669Z,23.10
2022-08-03T05:12:32.879Z,23.20
2022-08-03T05:15:01.826Z,23.20
2022-08-03T05:17:28.844Z,23.20
2022-08-03T05:19:56.017Z,23.20
2022-08-03T05:22:23.687Z,23.20
2022-08-03T05:24:50.536Z,23.20
2022-08-03T05:27:19.931Z,23.20
2022-08-03T05:29:47.663Z,23.30
2022-08-03T05:32:14.819Z,23.30
2022-08-03T05:34:41.718Z,23.40
2022-08-03T05:37:09.478Z,23.40
2022-08-03T05:39:36.412Z,23.50
2022-08-03T05:42:03.232Z,23.50
2022-08-03T05:44:31.621Z,23.50
2022-08-03T05:46:59.249Z,23.60
2022-08-03T05:49:26.055Z,23.50
2022-08-03T05:52:00.164Z,23.60
2022-08-03T05:54:55.476Z,23.60
2022-08-03T05:57:25.187Z,23.70
2022-08-03T05:59:54.612Z,23.80
2022-08-03T06:06:43.951Z,23.90
2022-08-03T06:09:10.842Z,23.90
2022-08-03T06:11:37.844Z,23.80
2022-08-03T06:14:04.663Z,23.80
2022-08-03T06:16:31.536Z,23.90
2022-08-03T06:18:58.266Z,23.90
2022-08-03T06:21:25.256Z,24.00
2022-08-03T06:23:55.638Z,24.10
2022-08-03T06:26:24.573Z,24.20
2022-08-03T06:28:53.940Z,24.30
2022-08-03T06:31:23.905Z,24.40
2022-08-03T06:34:33.598Z,24.40
2022-08-03T06:36:37.627Z,24.50
2022-08-03T06:39:05.154Z,24.50
2022-08-03T06:41:38.122Z,24.60
2022-08-03T06:44:11.281Z,24.60
2022-08-03T06:46:38.198Z,24.70
2022-08-03T06:49:05.072Z,24.80
2022-08-03T06:52:06.263Z,24.80
2022-08-03T06:54:18.864Z,24.90
2022-08-03T06:56:45.611Z,24.90
2022-08-03T07:00:09.402Z,24.90
2022-08-03T07:01:59.212Z,25.00
2022-08-03T07:04:25.907Z,25.10
2022-08-03T07:06:52.730Z,25.20
2022-08-03T07:09:19.487Z,25.30
2022-08-03T07:11:46.261Z,25.30
2022-08-03T07:14:12.978Z,25.30
2022-08-03T07:16:39.686Z,25.40
2022-08-03T07:19:06.429Z,25.50
2022-08-03T07:21:33.123Z,25.50
2022-08-03T07:23:59.830Z,25.50
2022-08-03T07:26:26.589Z,25.70
2022-08-03T07:28:53.336Z,25.70
2022-08-03T07:31:20.174Z,25.80
2022-08-03T07:33:46.965Z,25.80
2022-08-03T07:36:13.784Z,25.90
2022-08-03T07:38:40.490Z,25.90
2022-08-03T07:41:07.238Z,25.90
2022-08-03T07:43:34.127Z,26.00
2022-08-03T07:46:00.957Z,26.10
2022-08-03T07:48:27.672Z,26.20
2022-08-03T07:50:54.412Z,26.30
2022-08-03T07:53:21.221Z,26.30
2022-08-03T07:55:47.989Z,26.30
2022-08-03T07:58:20.635Z,26.40
2022-08-03T08:00:53.054Z,26.40
2022-08-03T08:03:21.806Z,26.50
2022-08-03T08:05:49.116Z,26.60
2022-08-03T08:08:15.941Z,26.60
2022-08-03T08:10:42.684Z,26.70
2022-08-03T08:13:25.466Z,26.80
2022-08-03T08:15:52.244Z,26.80
2022-08-03T08:18:19.149Z,26.90
2022-08-03T08:20:46.181Z,26.90
2022-08-03T08:23:37.752Z,27.00
2022-08-03T08:25:59.761Z,27.00
2022-08-03T08:28:32.496Z,27.10
2022-08-03T08:31:00.624Z,27.20
2022-08-03T08:33:37.228Z,27.30
2022-08-03T08:36:14.786Z,27.30
2022-08-03T08:38:42.912Z,27.40
2022-08-03T08:41:11.455Z,27.50
2022-08-03T08:43:38.297Z,27.40
2022-08-03T08:46:08.262Z,27.40
2022-08-03T08:48:40.443Z,27.50
2022-08-03T08:51:08.905Z,27.60
2022-08-03T08:53:38.324Z,27.70
2022-08-03T08:56:07.333Z,27.70
2022-08-03T08:58:46.989Z,27.70
2022-08-03T09:01:14.025Z,27.80
2022-08-03T09:03:41.569Z,28.00
2022-08-03T09:06:08.287Z,28.10
2022-08-03T09:08:35.638Z,28.10
2022-08-03T09:11:02.385Z,28.30
2022-08-03T09:13:30.599Z,28.30
2022-08-03T09:16:12.492Z,28.40
2022-08-03T09:18:40.673Z,28.40
2022-08-03T09:21:37.777Z,28.50
2022-08-03T09:24:10.240Z,28.60
2022-08-03T09:26:51.921Z,28.60
2022-08-03T09:29:21.103Z,28.70
2022-08-03T09:31:47.855Z,28.70
2022-08-03T09:34:16.469Z,28.80
2022-08-03T09:36:44.581Z,28.80
2022-08-03T09:39:16.700Z,28.90
2022-08-03T09:41:46.442Z,29.00
2022-08-03T09:44:24.224Z,29.10
2022-08-03T09:46:54.893Z,29.20
2022-08-03T09:49:22.143Z,29.30
2022-08-03T09:52:37.654Z,29.40
2022-08-03T09:54:36.009Z,29.40
2022-08-03T09:57:02.939Z,29.50
2022-08-03T09:59:32.148Z,29.50
2022-08-03T10:02:00.835Z,29.50
2022-08-03T10:04:28.065Z,29.50
2022-08-03T10:07:09.380Z,29.50
2022-08-03T10:09:37.499Z,29.60
2022-08-03T10:12:14.373Z,29.60
2022-08-03T10:14:45.278Z,29.70
2022-08-03T10:17:12.405Z,29.70
2022-08-03T10:19:39.700Z,29.70
2022-08-03T10:22:23.080Z,29.80
2022-08-03T10:25:02.829Z,29.90
2022-08-03T10:27:43.460Z,29.90
2022-08-03T10:30:11.716Z,29.90
2022-08-03T10:32:46.110Z,29.80
2022-08-03T10:35:20.285Z,29.90
2022-08-03T10:38:08.175Z,29.90
2022-08-03T10:40:57.138Z,29.90
2022-08-03T10:43:50.471Z,30.00
2022-08-03T10:46:21.282Z,30.00
2022-08-03T10:48:50.753Z,30.00
2022-08-03T10:51:17.707Z,30.10
2022-08-03T10:53:54.322Z,30.20
2022-08-03T10:56:52.549Z,30.20
2022-08-03T10:59:39.739Z,30.30
2022-08-03T11:02:09.909Z,30.30
2022-08-03T11:04:36.629Z,30.30
2022-08-03T11:07:24.383Z,30.30
2022-08-03T11:09:56.254Z,30.30
2022-08-03T11:12:28.302Z,30.20
2022-08-03T11:15:06.381Z,30.20
2022-08-03T11:17:46.612Z,30.20
2022-08-03T11:20:51.706Z,30.30
2022-08-03T11:24:02.642Z,30.40
2022-08-03T11:26:26.618Z,30.50
2022-08-03T11:28:53.407Z,30.80
2022-08-03T11:31:47.248Z,30.80
2022-08-03T11:34:15.049Z,30.80
2022-08-03T11:37:21.338Z,30.90
2022-08-03T11:39:52.963Z,30.90
2022-08-03T11:42:23.058Z,30.90
2022-08-03T11:45:00.594Z,30.90
2022-08-03T11:47:28.986Z,30.90
2022-08-03T11:50:00.228Z,30.90
2022-08-03T11:52:33.988Z,30.90
2022-08-03T11:55:01.787Z,31.00
2022-08-03T11:58:58.369Z,31.10
2022-08-03T12:00:28.154Z,31.20
2022-08-03T12:03:09.675Z,31.30
2022-08-03T12:05:51.658Z,31.30
2022-08-03T12:08:31.183Z,31.30
2022-08-03T12:11:00.089Z,31.40
2022-08-03T12:14:36.754Z,31.50
2022-08-03T12:16:19.562Z,31.60
2022-08-03T12:19:07.052Z,31.60
2022-08-03T12:21:33.982Z,31.60
2022-08-03T12:24:04.849Z,31.60
2022-08-03T12:26:52.155Z,31.60
2022-08-03T12:29:27.137Z,31.60
2022-08-03T12:31:53.940Z,31.60
2022-08-03T12:34:20.969Z,31.60
2022-08-03T12:36:52.619Z,31.70
2022-08-03T12:39:24.918Z,31.80
2022-08-03T12:41:56.732Z,31.90
2022-08-03T12:44:34.975Z,31.90
2022-08-03T12:47:03.456Z,32.00
2022-08-03T12:49:45.285Z,32.00
2022-08-03T12:52:12.130Z,32.00
2022-08-03T12:54:38.938Z,32.00
2022-08-03T12:57:07.595Z,31.90
2022-08-03T12:59:40.778Z,31.80
2022-08-03T13:02:19.054Z,31.80
2022-08-03T13:04:47.266Z,31.90
2022-08-03T13:07:14.884Z,32.00
2022-08-03T13:09:46.867Z,32.00
2022-08-03T13:12:21.823Z,32.10
2022-08-03T13:14:51.837Z,32.10
2022-08-03T13:17:19.112Z,32.10
2022-08-03T13:19:47.260Z,32.10
2022-08-03T13:22:15.212Z,32.20
2022-08-03T13:24:43.557Z,32.20
2022-08-03T13:28:01.730Z,32.30
2022-08-03T13:29:57.759Z,32.30
2022-08-03T13:32:24.942Z,32.20
2022-08-03T13:34:51.726Z,32.20
2022-08-03T13:37:18.531Z,32.20
2022-08-03T13:39:57.296Z,32.30
2022-08-03T13:42:27.404Z,32.30
2022-08-03T13:44:54.201Z,32.30
2022-08-03T13:47:21.333Z,32.30
2022-08-03T13:49:59.864Z,32.40
2022-08-03T13:52:34.168Z,32.50
2022-08-03T13:55:02.407Z,32.50
2022-08-03T13:58:03.455Z,32.60
2022-08-03T14:00:27.118Z,32.60
2022-08-03T14:03:03.922Z,32.60
2022-08-03T14:05:34.439Z,32.50
2022-08-03T14:08:04.875Z,32.60
2022-08-03T14:10:40.234Z,32.60
2022-08-03T14:13:07.519Z,32.60
2022-08-03T14:15:37.758Z,32.70
2022-08-03T14:18:15.262Z,32.80
2022-08-03T14:20:50.259Z,32.70
2022-08-03T14:23:21.429Z,32.70
2022-08-03T14:25:51.825Z,32.70
2022-08-03T14:28:22.761Z,32.70
2022-08-03T14:30:50.804Z,32.70
2022-08-03T14:33:17.847Z,32.80
2022-08-03T14:35:44.578Z,32.90
2022-08-03T14:38:11.352Z,32.90
2022-08-03T14:40:38.204Z,32.90
2022-08-03T14:43:05.025Z,32.90
2022-08-03T14:45:31.902Z,33.00
2022-08-03T14:50:32.309Z,33.10
2022-08-03T14:50:51.600Z,33.10
2022-08-03T14:53:19.696Z,33.20
2022-08-03T14:55:50.495Z,33.30
2022-08-03T14:58:22.894Z,33.40
2022-08-03T15:00:51.216Z,33.30
2022-08-03T15:03:24.505Z,33.20
2022-08-03T15:05:53.173Z,33.10
2022-08-03T15:08:20.631Z,33.10
2022-08-03T15:10:49.244Z,33.10
2022-08-03T15:13:17.435Z,33.10
2022-08-03T15:15:44.289Z,33.10
2022-08-03T15:18:11.534Z,33.10
2022-08-03T15:20:47.012Z,33.10
2022-08-03T15:23:15.119Z,33.00
2022-08-03T15:26:03.289Z,33.00
2022-08-03T15:28:30.433Z,33.00
2022-08-03T15:30:57.325Z,33.00
2022-08-03T15:33:24.106Z,33.10
2022-08-03T15:35:50.878Z,33.30
2022-08-03T15:38:17.939Z,33.30
2022-08-03T15:40:44.945Z,33.40
2022-08-03T15:43:11.820Z,33.40
2022-08-03T15:45:38.598Z,33.50
2022-08-03T15:48:07.022Z,33.60
2022-08-03T15:50:34.371Z,33.60
2022-08-03T15:53:01.127Z,33.60
2022-08-03T16:03:03.412Z,33.40
2022-08-03T16:05:30.185Z,33.50
2022-08-03T16:08:02.853Z,33.50
2022-08-03T16:10:31.906Z,33.60
2022-08-03T16:12:59.953Z,33.70
2022-08-03T16:15:27.059Z,33.80
2022-08-03T16:17:53.886Z,33.80
2022-08-03T16:20:31.451Z,33.90
2022-08-03T16:23:11.048Z,34.00
2022-08-03T16:25:42.785Z,33.90
2022-08-03T16:28:14.133Z,34.00
2022-08-03T16:30:43.732Z,34.00
2022-08-03T16:33:11.861Z,34.00
2022-08-03T16:35:44.965Z,34.00
2022-08-03T16:38:16.568Z,33.90
2022-08-03T16:40:47.094Z,33.90
2022-08-03T16:43:17.846Z,33.90
2022-08-03T16:45:47.205Z,34.00
2022-08-03T16:48:15.129Z,34.00
2022-08-03T16:50:41.963Z,34.00
2022-08-03T16:53:16.459Z,34.00
2022-08-03T16:55:53.279Z,34.10
2022-08-03T16:58:24.335Z,34.10
2022-08-03T17:01:21.988Z,34.10
2022-08-03T17:04:02.117Z,34.00
2022-08-03T17:06:36.316Z,34.00
2022-08-03T17:09:09.149Z,34.00
2022-08-03T17:11:38.896Z,34.00
2022-08-03T17:14:12.043Z,34.00
2022-08-03T17:16:40.444Z,34.10
2022-08-03T17:19:21.338Z,34.10
2022-08-03T17:21:59.956Z,34.10
2022-08-03T17:24:43.773Z,33.90
2022-08-03T17:27:23.174Z,33.70
2022-08-03T17:30:09.546Z,33.60
2022-08-03T17:32:42.888Z,33.70
2022-08-03T17:35:20.949Z,33.80
2022-08-03T17:37:58.597Z,33.90
2022-08-03T17:40:31.347Z,34.00
2022-08-03T17:43:00.551Z,34.10
2022-08-03T17:48:18.736Z,34.10
2022-08-03T17:50:57.576Z,34.00
2022-08-03T17:53:29.113Z,34.10
2022-08-03T17:56:38.832Z,34.20
2022-08-03T17:59:50.602Z,34.50
2022-08-03T18:02:58.992Z,34.80
2022-08-03T18:06:10.380Z,34.80
2022-08-03T18:08:38.888Z,34.70
2022-08-03T18:14:01.084Z,34.40
2022-08-03T18:16:38.495Z,34.10
2022-08-03T18:19:09.370Z,34.10
2022-08-03T18:22:02.545Z,34.00
2022-08-03T18:24:29.245Z,34.00
2022-08-03T18:26:58.841Z,33.90
2022-08-03T18:29:27.338Z,33.80
2022-08-03T18:32:03.875Z,33.70
2022-08-03T18:34:34.538Z,33.50
2022-08-03T18:37:07.555Z,33.50
2022-08-03T18:39:49.543Z,33.40
2022-08-03T18:42:19.979Z,33.40
2022-08-03T18:44:54.223Z,33.40
2022-08-03T18:47:51.704Z,33.40
2022-08-03T18:50:30.853Z,33.40
2022-08-03T18:53:03.770Z,33.40
2022-08-03T18:56:07.810Z,33.40
2022-08-03T18:58:56.361Z,33.40
2022-08-03T19:02:00.361Z,33.30
2022-08-03T19:04:24.297Z,33.20
2022-08-03T19:07:00.908Z,33.20
2022-08-03T19:09:52.708Z,33.10
2022-08-03T19:12:30.693Z,32.90
2022-08-03T19:15:05.402Z,32.80
2022-08-03T19:17:38.478Z,32.70
2022-08-03T19:20:06.536Z,32.60
2022-08-03T19:22:33.853Z,32.60
2022-08-03T19:25:02.357Z,32.50
2022-08-03T19:27:31.092Z,32.40
2022-08-03T19:30:04.098Z,32.30
2022-08-03T19:32:34.864Z,32.30
2022-08-03T19:35:05.106Z,32.20
2022-08-03T19:37:40.678Z,32.10
2022-08-03T19:40:10.895Z,32.00
2022-08-03T19:42:42.652Z,32.00
2022-08-03T19:45:14.405Z,31.90
2022-08-03T19:48:09.826Z,31.80
2022-08-03T19:50:44.630Z,31.80
2022-08-03T19:53:13.055Z,31.70
2022-08-03T19:55:49.011Z,31.60
2022-08-03T19:58:17.506Z,31.60
2022-08-03T20:00:51.318Z,31.50
2022-08-03T20:03:22.105Z,31.50
2022-08-03T20:05:54.054Z,31.50
2022-08-03T20:08:21.776Z,31.50
2022-08-03T20:10:49.552Z,31.40
2022-08-03T20:13:19.500Z,31.30
2022-08-03T20:15:46.477Z,31.30
2022-08-03T20:18:16.866Z,31.20
2022-08-03T20:20:48.014Z,31.30
2022-08-03T20:23:18.199Z,31.20
2022-08-03T20:25:58.620Z,31.10
2022-08-03T20:28:32.036Z,31.10
2022-08-03T20:30:59.829Z,31.00
2022-08-03T20:33:48.851Z,31.00
2022-08-03T20:36:17.824Z,31.00
2022-08-03T20:38:46.970Z,31.00
2022-08-03T20:41:14.869Z,31.00
2022-08-03T20:43:41.994Z,31.00
2022-08-03T20:46:35.357Z,30.90
2022-08-03T20:48:58.844Z,30.90
2022-08-03T20:51:49.618Z,30.90
2022-08-03T20:54:28.876Z,30.90
2022-08-03T20:56:58.542Z,30.90
2022-08-03T20:59:35.067Z,30.90
2022-08-03T21:02:05.640Z,30.80
2022-08-03T21:04:32.388Z,30.80
2022-08-03T21:07:09.807Z,30.80
2022-08-03T21:09:56.073Z,30.80
2022-08-03T21:12:46.848Z,30.80
2022-08-03T21:12:55.020Z,34.10
2022-08-03T21:12:57.106Z,34.60
2022-08-03T21:16:05.404Z,30.60
2022-08-03T21:18:10.093Z,30.60
2022-08-03T21:20:38.687Z,30.50
2022-08-03T21:23:08.952Z,30.50
2022-08-03T21:25:35.928Z,30.50
2022-08-03T21:28:05.886Z,30.40
2022-08-03T21:30:32.653Z,30.40
2022-08-03T21:32:59.420Z,30.30
2022-08-03T21:35:26.810Z,30.20
2022-08-03T21:38:12.703Z,30.20
2022-08-03T21:40:40.968Z,30.20
2022-08-03T21:43:08.273Z,30.10
2022-08-03T21:45:51.937Z,30.00
2022-08-03T21:48:21.391Z,30.00
2022-08-03T21:50:50.755Z,29.80
2022-08-03T21:53:18.399Z,29.80
2022-08-03T21:55:57.427Z,29.80
2022-08-03T21:58:51.060Z,29.80
2022-08-03T22:01:28.370Z,29.70
2022-08-03T22:04:06.819Z,29.60
2022-08-03T22:06:35.068Z,29.50
2022-08-03T22:09:01.953Z,29.50
2022-08-03T22:11:29.182Z,29.50
2022-08-03T22:13:55.939Z,29.50
2022-08-03T22:16:22.960Z,29.50
2022-08-03T22:18:49.770Z,29.50
2022-08-03T22:21:28.128Z,29.40
2022-08-03T22:24:05.972Z,29.40
2022-08-03T22:26:35.534Z,29.30
2022-08-03T22:29:07.964Z,29.30
2022-08-03T22:31:58.472Z,29.30
2022-08-03T22:34:26.682Z,29.30
2022-08-03T22:36:57.309Z,29.20
2022-08-03T22:39:29.007Z,29.30
2022-08-03T22:41:59.110Z,29.20
2022-08-03T22:44:29.949Z,29.30
2022-08-03T22:46:57.972Z,29.20
2022-08-03T22:49:26.909Z,29.10
2022-08-03T22:51:54.111Z,29.10
2022-08-03T22:54:22.767Z,29.00
2022-08-03T22:56:52.846Z,29.00
2022-08-03T22:59:40.832Z,29.00
2022-08-03T23:02:20.966Z,28.90
2022-08-03T23:04:57.389Z,28.90
2022-08-03T23:07:38.356Z,28.80
2022-08-03T23:10:08.102Z,28.80
2022-08-03T23:12:37.168Z,28.70
2022-08-03T23:15:07.269Z,28.70
2022-08-03T23:17:57.518Z,28.60
2022-08-03T23:20:26.632Z,28.60
2022-08-03T23:22:54.153Z,28.50
2022-08-03T23:25:22.012Z,28.50
2022-08-03T23:28:04.595Z,28.50
2022-08-03T23:30:34.658Z,28.40
2022-08-03T23:33:02.821Z,28.40
2022-08-03T23:36:28.778Z,28.40
2022-08-03T23:38:36.762Z,28.30
2022-08-03T23:41:05.143Z,28.30
2022-08-03T23:43:52.347Z,28.30
2022-08-03T23:46:22.552Z,28.30
2022-08-03T23:48:50.007Z,28.20
2022-08-03T23:51:53.531Z,28.10
2022-08-03T23:54:28.956Z,28.10
2022-08-03T23:57:19.507Z,28.00
